sensor_id;sensor_type;location;lat;lon;timestamp;P1;durP1;ratioP1;P2;durP2;ratioP2
47251;SDS011;32991;51.374;11.586;2023-07-16T00:02:24;7.07;;;6.10;;
47251;SDS011;32991;51.374;11.586;2023-07-16T00:04:51;6.05;;;4.38;;
47251;SDS011;32991;51.374;11.586;2023-07-16T00:07:18;9.20;;;4.43;;
47251;SDS011;32991;51.374;11.586;2023-07-16T00:09:44;6.30;;;4.28;;
47251;SDS011;32991;51.374;11.586;2023-07-16T00:12:11;5.65;;;3.90;;
47251;SDS011;32991;51.374;11.586;2023-07-16T00:14:38;6.88;;;4.53;;
47251;SDS011;32991;51.374;11.586;2023-07-16T00:17:04;6.45;;;4.07;;
47251;SDS011;32991;51.374;11.586;2023-07-16T00:19:31;5.95;;;3.95;;
47251;SDS011;32991;51.374;11.586;2023-07-16T00:21:58;7.30;;;4.43;;
47251;SDS011;32991;51.374;11.586;2023-07-16T00:24:24;9.23;;;6.10;;
47251;SDS011;32991;51.374;11.586;2023-07-16T00:26:51;13.35;;;10.45;;
47251;SDS011;32991;51.374;11.586;2023-07-16T00:29:18;20.02;;;15.52;;
47251;SDS011;32991;51.374;11.586;2023-07-16T00:31:45;29.08;;;26.10;;
47251;SDS011;32991;51.374;11.586;2023-07-16T00:34:12;11.13;;;10.02;;
47251;SDS011;32991;51.374;11.586;2023-07-16T00:36:39;14.57;;;12.70;;
47251;SDS011;32991;51.374;11.586;2023-07-16T00:39:05;8.43;;;4.15;;
47251;SDS011;32991;51.374;11.586;2023-07-16T00:41:32;6.55;;;3.50;;
47251;SDS011;32991;51.374;11.586;2023-07-16T00:43:59;6.07;;;4.22;;
47251;SDS011;32991;51.374;11.586;2023-07-16T00:48:52;4.97;;;3.17;;
47251;SDS011;32991;51.374;11.586;2023-07-16T00:53:45;5.25;;;3.45;;
47251;SDS011;32991;51.374;11.586;2023-07-16T00:58:39;6.45;;;3.38;;
47251;SDS011;32991;51.374;11.586;2023-07-16T01:01:06;4.15;;;3.03;;
47251;SDS011;32991;51.374;11.586;2023-07-16T01:03:32;3.80;;;2.47;;
47251;SDS011;32991;51.374;11.586;2023-07-16T01:06:00;3.97;;;2.63;;
47251;SDS011;32991;51.374;11.586;2023-07-16T01:08:52;3.80;;;2.70;;
47251;SDS011;32991;51.374;11.586;2023-07-16T01:11:20;6.55;;;3.10;;
47251;SDS011;32991;51.374;11.586;2023-07-16T01:13:48;6.13;;;2.70;;
47251;SDS011;32991;51.374;11.586;2023-07-16T01:16:21;2.80;;;2.60;;
47251;SDS011;32991;51.374;11.586;2023-07-16T01:18:49;3.58;;;2.70;;
47251;SDS011;32991;51.374;11.586;2023-07-16T01:21:18;4.22;;;2.67;;
47251;SDS011;32991;51.374;11.586;2023-07-16T01:27:02;3.42;;;2.70;;
47251;SDS011;32991;51.374;11.586;2023-07-16T01:29:41;3.80;;;2.67;;
47251;SDS011;32991;51.374;11.586;2023-07-16T01:32:10;3.97;;;3.38;;
47251;SDS011;32991;51.374;11.586;2023-07-16T01:34:38;5.97;;;3.10;;
47251;SDS011;32991;51.374;11.586;2023-07-16T01:37:05;4.38;;;3.15;;
47251;SDS011;32991;51.374;11.586;2023-07-16T01:39:32;3.13;;;2.80;;
47251;SDS011;32991;51.374;11.586;2023-07-16T01:41:59;3.72;;;2.58;;
47251;SDS011;32991;51.374;11.586;2023-07-16T01:44:25;4.53;;;2.35;;
47251;SDS011;32991;51.374;11.586;2023-07-16T01:47:15;3.63;;;3.03;;
47251;SDS011;32991;51.374;11.586;2023-07-16T01:49:50;3.20;;;2.63;;
47251;SDS011;32991;51.374;11.586;2023-07-16T01:52:18;3.88;;;2.45;;
47251;SDS011;32991;51.374;11.586;2023-07-16T01:54:44;7.22;;;2.75;;
47251;SDS011;32991;51.374;11.586;2023-07-16T01:57:11;3.47;;;2.53;;
47251;SDS011;32991;51.374;11.586;2023-07-16T01:59:38;4.95;;;2.90;;
47251;SDS011;32991;51.374;11.586;2023-07-16T02:02:04;4.35;;;3.20;;
47251;SDS011;32991;51.374;11.586;2023-07-16T02:04:31;3.25;;;2.88;;
47251;SDS011;32991;51.374;11.586;2023-07-16T02:06:58;3.08;;;2.55;;
47251;SDS011;32991;51.374;11.586;2023-07-16T02:09:24;3.22;;;2.92;;
47251;SDS011;32991;51.374;11.586;2023-07-16T02:11:51;4.78;;;3.33;;
47251;SDS011;32991;51.374;11.586;2023-07-16T02:14:18;4.57;;;2.60;;
47251;SDS011;32991;51.374;11.586;2023-07-16T02:16:46;4.50;;;2.90;;
47251;SDS011;32991;51.374;11.586;2023-07-16T02:19:12;5.63;;;2.78;;
47251;SDS011;32991;51.374;11.586;2023-07-16T02:21:39;5.35;;;2.80;;
47251;SDS011;32991;51.374;11.586;2023-07-16T02:24:05;3.58;;;2.58;;
47251;SDS011;32991;51.374;11.586;2023-07-16T02:26:32;2.70;;;2.30;;
47251;SDS011;32991;51.374;11.586;2023-07-16T02:28:58;3.20;;;2.47;;
47251;SDS011;32991;51.374;11.586;2023-07-16T02:31:25;2.50;;;2.30;;
47251;SDS011;32991;51.374;11.586;2023-07-16T02:33:52;5.20;;;2.85;;
47251;SDS011;32991;51.374;11.586;2023-07-16T02:36:19;3.88;;;2.80;;
47251;SDS011;32991;51.374;11.586;2023-07-16T02:38:45;4.72;;;2.80;;
47251;SDS011;32991;51.374;11.586;2023-07-16T02:41:12;3.40;;;2.55;;
47251;SDS011;32991;51.374;11.586;2023-07-16T02:43:38;4.07;;;2.50;;
47251;SDS011;32991;51.374;11.586;2023-07-16T02:46:05;3.25;;;2.20;;
47251;SDS011;32991;51.374;11.586;2023-07-16T02:48:31;4.05;;;2.60;;
47251;SDS011;32991;51.374;11.586;2023-07-16T02:50:58;3.40;;;2.47;;
47251;SDS011;32991;51.374;11.586;2023-07-16T02:53:25;2.90;;;2.60;;
47251;SDS011;32991;51.374;11.586;2023-07-16T02:58:18;4.20;;;2.90;;
47251;SDS011;32991;51.374;11.586;2023-07-16T03:00:44;6.47;;;3.40;;
47251;SDS011;32991;51.374;11.586;2023-07-16T03:03:11;3.85;;;2.88;;
47251;SDS011;32991;51.374;11.586;2023-07-16T03:10:31;3.03;;;2.65;;
47251;SDS011;32991;51.374;11.586;2023-07-16T03:12:58;3.80;;;2.50;;
47251;SDS011;32991;51.374;11.586;2023-07-16T03:15:24;4.75;;;2.60;;
47251;SDS011;32991;51.374;11.586;2023-07-16T03:20:18;6.45;;;2.70;;
47251;SDS011;32991;51.374;11.586;2023-07-16T03:22:45;5.57;;;3.30;;
47251;SDS011;32991;51.374;11.586;2023-07-16T03:25:12;13.20;;;2.67;;
47251;SDS011;32991;51.374;11.586;2023-07-16T03:27:38;3.55;;;2.50;;
47251;SDS011;32991;51.374;11.586;2023-07-16T03:30:05;4.43;;;2.60;;
47251;SDS011;32991;51.374;11.586;2023-07-16T03:32:32;3.75;;;2.67;;
47251;SDS011;32991;51.374;11.586;2023-07-16T03:35:17;7.82;;;2.78;;
47251;SDS011;32991;51.374;11.586;2023-07-16T03:37:44;2.95;;;2.35;;
47251;SDS011;32991;51.374;11.586;2023-07-16T03:40:14;3.33;;;2.28;;
47251;SDS011;32991;51.374;11.586;2023-07-16T03:42:44;3.53;;;2.60;;
47251;SDS011;32991;51.374;11.586;2023-07-16T03:45:11;3.88;;;2.40;;
47251;SDS011;32991;51.374;11.586;2023-07-16T03:47:37;3.50;;;2.55;;
47251;SDS011;32991;51.374;11.586;2023-07-16T03:50:04;6.32;;;2.53;;
47251;SDS011;32991;51.374;11.586;2023-07-16T03:52:31;6.32;;;3.35;;
47251;SDS011;32991;51.374;11.586;2023-07-16T03:54:58;3.42;;;2.42;;
47251;SDS011;32991;51.374;11.586;2023-07-16T03:57:26;5.07;;;2.60;;
47251;SDS011;32991;51.374;11.586;2023-07-16T03:59:54;4.55;;;3.20;;
47251;SDS011;32991;51.374;11.586;2023-07-16T04:02:21;4.95;;;2.67;;
47251;SDS011;32991;51.374;11.586;2023-07-16T04:04:47;6.22;;;2.80;;
47251;SDS011;32991;51.374;11.586;2023-07-16T04:07:14;4.40;;;2.90;;
47251;SDS011;32991;51.374;11.586;2023-07-16T04:09:40;5.80;;;3.08;;
47251;SDS011;32991;51.374;11.586;2023-07-16T04:12:07;7.93;;;3.83;;
47251;SDS011;32991;51.374;11.586;2023-07-16T04:14:33;9.63;;;3.40;;
47251;SDS011;32991;51.374;11.586;2023-07-16T04:19:27;7.57;;;3.08;;
47251;SDS011;32991;51.374;11.586;2023-07-16T04:21:54;6.32;;;3.15;;
47251;SDS011;32991;51.374;11.586;2023-07-16T04:24:21;3.78;;;2.85;;
47251;SDS011;32991;51.374;11.586;2023-07-16T04:26:47;6.97;;;2.88;;
47251;SDS011;32991;51.374;11.586;2023-07-16T04:29:14;5.85;;;2.72;;
47251;SDS011;32991;51.374;11.586;2023-07-16T04:31:42;4.72;;;2.50;;
47251;SDS011;32991;51.374;11.586;2023-07-16T04:34:08;5.05;;;2.53;;
47251;SDS011;32991;51.374;11.586;2023-07-16T04:36:35;4.38;;;2.25;;
47251;SDS011;32991;51.374;11.586;2023-07-16T04:39:01;4.63;;;2.08;;
47251;SDS011;32991;51.374;11.586;2023-07-16T04:41:28;2.10;;;1.63;;
47251;SDS011;32991;51.374;11.586;2023-07-16T04:43:55;3.45;;;1.90;;
47251;SDS011;32991;51.374;11.586;2023-07-16T04:46:21;2.42;;;1.65;;
47251;SDS011;32991;51.374;11.586;2023-07-16T04:48:48;2.55;;;1.80;;
47251;SDS011;32991;51.374;11.586;2023-07-16T04:51:15;3.65;;;1.65;;
47251;SDS011;32991;51.374;11.586;2023-07-16T04:53:41;4.22;;;1.58;;
47251;SDS011;32991;51.374;11.586;2023-07-16T04:56:12;3.58;;;1.83;;
47251;SDS011;32991;51.374;11.586;2023-07-16T04:58:39;7.28;;;1.73;;
47251;SDS011;32991;51.374;11.586;2023-07-16T05:01:07;6.38;;;2.53;;
47251;SDS011;32991;51.374;11.586;2023-07-16T05:03:34;3.40;;;1.67;;
47251;SDS011;32991;51.374;11.586;2023-07-16T05:06:00;5.45;;;1.73;;
47251;SDS011;32991;51.374;11.586;2023-07-16T05:08:27;4.90;;;1.60;;
47251;SDS011;32991;51.374;11.586;2023-07-16T05:10:54;2.47;;;1.48;;
47251;SDS011;32991;51.374;11.586;2023-07-16T05:13:20;5.05;;;2.03;;
47251;SDS011;32991;51.374;11.586;2023-07-16T05:15:47;4.50;;;1.80;;
47251;SDS011;32991;51.374;11.586;2023-07-16T05:18:14;2.72;;;1.88;;
47251;SDS011;32991;51.374;11.586;2023-07-16T05:20:42;1.73;;;1.45;;
47251;SDS011;32991;51.374;11.586;2023-07-16T05:23:09;3.47;;;1.60;;
47251;SDS011;32991;51.374;11.586;2023-07-16T05:25:36;3.88;;;1.52;;
47251;SDS011;32991;51.374;11.586;2023-07-16T05:28:03;2.58;;;1.40;;
47251;SDS011;32991;51.374;11.586;2023-07-16T05:30:29;2.70;;;1.40;;
47251;SDS011;32991;51.374;11.586;2023-07-16T05:32:56;4.38;;;1.60;;
47251;SDS011;32991;51.374;11.586;2023-07-16T05:35:22;5.00;;;1.80;;
47251;SDS011;32991;51.374;11.586;2023-07-16T05:37:49;4.03;;;1.70;;
47251;SDS011;32991;51.374;11.586;2023-07-16T05:40:16;5.65;;;1.30;;
47251;SDS011;32991;51.374;11.586;2023-07-16T05:42:42;3.28;;;1.70;;
47251;SDS011;32991;51.374;11.586;2023-07-16T05:45:09;2.80;;;1.55;;
47251;SDS011;32991;51.374;11.586;2023-07-16T05:47:35;7.68;;;1.58;;
47251;SDS011;32991;51.374;11.586;2023-07-16T05:50:02;5.25;;;1.90;;
47251;SDS011;32991;51.374;11.586;2023-07-16T05:52:29;2.45;;;1.77;;
47251;SDS011;32991;51.374;11.586;2023-07-16T05:54:56;5.45;;;1.80;;
47251;SDS011;32991;51.374;11.586;2023-07-16T05:57:22;3.95;;;1.70;;
47251;SDS011;32991;51.374;11.586;2023-07-16T05:59:49;2.00;;;1.40;;
47251;SDS011;32991;51.374;11.586;2023-07-16T06:02:15;3.05;;;1.67;;
47251;SDS011;32991;51.374;11.586;2023-07-16T06:04:42;4.13;;;1.58;;
47251;SDS011;32991;51.374;11.586;2023-07-16T06:07:08;7.80;;;1.70;;
47251;SDS011;32991;51.374;11.586;2023-07-16T06:09:35;2.58;;;1.42;;
47251;SDS011;32991;51.374;11.586;2023-07-16T06:12:02;2.60;;;1.35;;
47251;SDS011;32991;51.374;11.586;2023-07-16T06:14:28;3.20;;;1.52;;
47251;SDS011;32991;51.374;11.586;2023-07-16T06:16:55;2.97;;;1.60;;
47251;SDS011;32991;51.374;11.586;2023-07-16T06:19:22;4.32;;;1.50;;
47251;SDS011;32991;51.374;11.586;2023-07-16T06:21:48;4.80;;;1.45;;
47251;SDS011;32991;51.374;11.586;2023-07-16T06:24:15;2.00;;;1.40;;
47251;SDS011;32991;51.374;11.586;2023-07-16T06:26:43;3.00;;;1.58;;
47251;SDS011;32991;51.374;11.586;2023-07-16T06:29:09;4.30;;;1.90;;
47251;SDS011;32991;51.374;11.586;2023-07-16T06:31:36;4.50;;;1.52;;
47251;SDS011;32991;51.374;11.586;2023-07-16T06:34:02;4.07;;;1.40;;
47251;SDS011;32991;51.374;11.586;2023-07-16T06:36:29;6.05;;;1.67;;
47251;SDS011;32991;51.374;11.586;2023-07-16T06:38:56;3.17;;;1.80;;
47251;SDS011;32991;51.374;11.586;2023-07-16T06:41:22;4.25;;;1.77;;
47251;SDS011;32991;51.374;11.586;2023-07-16T06:43:49;3.25;;;1.42;;
47251;SDS011;32991;51.374;11.586;2023-07-16T06:46:15;3.25;;;1.38;;
47251;SDS011;32991;51.374;11.586;2023-07-16T06:48:42;2.35;;;1.40;;
47251;SDS011;32991;51.374;11.586;2023-07-16T06:51:09;4.97;;;1.90;;
47251;SDS011;32991;51.374;11.586;2023-07-16T06:53:36;3.40;;;1.73;;
47251;SDS011;32991;51.374;11.586;2023-07-16T06:56:03;4.65;;;1.75;;
47251;SDS011;32991;51.374;11.586;2023-07-16T06:58:32;2.80;;;1.45;;
47251;SDS011;32991;51.374;11.586;2023-07-16T07:00:59;3.83;;;1.80;;
47251;SDS011;32991;51.374;11.586;2023-07-16T07:03:26;3.83;;;1.38;;
47251;SDS011;32991;51.374;11.586;2023-07-16T07:05:53;5.65;;;1.50;;
47251;SDS011;32991;51.374;11.586;2023-07-16T07:08:20;2.42;;;1.30;;
47251;SDS011;32991;51.374;11.586;2023-07-16T07:10:48;2.92;;;1.20;;
47251;SDS011;32991;51.374;11.586;2023-07-16T07:13:15;2.17;;;1.55;;
47251;SDS011;32991;51.374;11.586;2023-07-16T07:15:42;3.58;;;1.75;;
47251;SDS011;32991;51.374;11.586;2023-07-16T07:18:09;2.97;;;1.60;;
47251;SDS011;32991;51.374;11.586;2023-07-16T07:20:35;2.88;;;1.33;;
47251;SDS011;32991;51.374;11.586;2023-07-16T07:23:02;4.50;;;1.70;;
47251;SDS011;32991;51.374;11.586;2023-07-16T07:25:31;2.80;;;1.30;;
47251;SDS011;32991;51.374;11.586;2023-07-16T07:27:58;3.60;;;1.83;;
47251;SDS011;32991;51.374;11.586;2023-07-16T07:30:24;4.63;;;1.70;;
47251;SDS011;32991;51.374;11.586;2023-07-16T07:32:51;3.00;;;1.50;;
47251;SDS011;32991;51.374;11.586;2023-07-16T07:35:18;3.15;;;1.30;;
47251;SDS011;32991;51.374;11.586;2023-07-16T07:37:44;2.97;;;1.45;;
47251;SDS011;32991;51.374;11.586;2023-07-16T07:40:11;5.25;;;1.45;;
47251;SDS011;32991;51.374;11.586;2023-07-16T07:42:38;3.33;;;1.77;;
47251;SDS011;32991;51.374;11.586;2023-07-16T07:45:05;3.15;;;1.30;;
47251;SDS011;32991;51.374;11.586;2023-07-16T07:47:32;3.28;;;1.60;;
47251;SDS011;32991;51.374;11.586;2023-07-16T07:49:58;6.13;;;1.73;;
47251;SDS011;32991;51.374;11.586;2023-07-16T07:52:26;5.53;;;1.58;;
47251;SDS011;32991;51.374;11.586;2023-07-16T07:54:53;3.50;;;1.55;;
47251;SDS011;32991;51.374;11.586;2023-07-16T07:57:20;2.80;;;1.67;;
47251;SDS011;32991;51.374;11.586;2023-07-16T07:59:46;4.20;;;1.30;;
47251;SDS011;32991;51.374;11.586;2023-07-16T08:02:13;2.35;;;1.63;;
47251;SDS011;32991;51.374;11.586;2023-07-16T08:04:40;5.90;;;1.42;;
47251;SDS011;32991;51.374;11.586;2023-07-16T08:07:07;5.55;;;1.83;;
47251;SDS011;32991;51.374;11.586;2023-07-16T08:09:33;4.30;;;1.58;;
47251;SDS011;32991;51.374;11.586;2023-07-16T08:12:00;4.85;;;1.45;;
47251;SDS011;32991;51.374;11.586;2023-07-16T08:14:26;2.95;;;1.73;;
47251;SDS011;32991;51.374;11.586;2023-07-16T08:16:53;1.55;;;1.00;;
47251;SDS011;32991;51.374;11.586;2023-07-16T08:19:20;4.45;;;1.33;;
47251;SDS011;32991;51.374;11.586;2023-07-16T08:21:46;2.45;;;1.42;;
47251;SDS011;32991;51.374;11.586;2023-07-16T08:24:13;2.35;;;1.35;;
47251;SDS011;32991;51.374;11.586;2023-07-16T08:26:39;2.45;;;1.55;;
47251;SDS011;32991;51.374;11.586;2023-07-16T08:29:06;4.68;;;1.55;;
47251;SDS011;32991;51.374;11.586;2023-07-16T08:31:33;4.90;;;1.50;;
47251;SDS011;32991;51.374;11.586;2023-07-16T08:33:59;3.30;;;1.42;;
47251;SDS011;32991;51.374;11.586;2023-07-16T08:36:29;5.65;;;1.77;;
47251;SDS011;32991;51.374;11.586;2023-07-16T08:38:56;2.70;;;1.35;;
47251;SDS011;32991;51.374;11.586;2023-07-16T08:41:23;4.45;;;1.50;;
47251;SDS011;32991;51.374;11.586;2023-07-16T08:43:51;4.68;;;1.40;;
47251;SDS011;32991;51.374;11.586;2023-07-16T08:46:18;4.18;;;1.55;;
47251;SDS011;32991;51.374;11.586;2023-07-16T08:48:45;3.47;;;1.50;;
47251;SDS011;32991;51.374;11.586;2023-07-16T08:51:14;2.67;;;1.58;;
47251;SDS011;32991;51.374;11.586;2023-07-16T08:53:41;3.65;;;1.80;;
47251;SDS011;32991;51.374;11.586;2023-07-16T08:56:08;3.33;;;1.73;;
47251;SDS011;32991;51.374;11.586;2023-07-16T08:58:35;2.10;;;1.40;;
47251;SDS011;32991;51.374;11.586;2023-07-16T09:01:03;9.25;;;1.75;;
47251;SDS011;32991;51.374;11.586;2023-07-16T09:03:31;3.20;;;1.23;;
47251;SDS011;32991;51.374;11.586;2023-07-16T09:05:58;2.40;;;1.20;;
47251;SDS011;32991;51.374;11.586;2023-07-16T09:08:24;1.98;;;1.30;;
47251;SDS011;32991;51.374;11.586;2023-07-16T09:10:55;2.78;;;1.20;;
47251;SDS011;32991;51.374;11.586;2023-07-16T09:13:23;2.95;;;1.23;;
47251;SDS011;32991;51.374;11.586;2023-07-16T09:15:54;2.40;;;1.33;;
47251;SDS011;32991;51.374;11.586;2023-07-16T09:18:22;2.90;;;1.40;;
47251;SDS011;32991;51.374;11.586;2023-07-16T09:20:56;4.22;;;1.20;;
47251;SDS011;32991;51.374;11.586;2023-07-16T09:23:24;4.43;;;1.60;;
47251;SDS011;32991;51.374;11.586;2023-07-16T09:25:55;3.17;;;1.85;;
47251;SDS011;32991;51.374;11.586;2023-07-16T09:28:22;3.20;;;1.30;;
47251;SDS011;32991;51.374;11.586;2023-07-16T09:30:49;3.03;;;1.30;;
47251;SDS011;32991;51.374;11.586;2023-07-16T09:33:17;3.17;;;1.30;;
47251;SDS011;32991;51.374;11.586;2023-07-16T09:35:47;4.10;;;1.35;;
47251;SDS011;32991;51.374;11.586;2023-07-16T09:38:15;2.40;;;1.35;;
47251;SDS011;32991;51.374;11.586;2023-07-16T09:40:43;3.10;;;1.48;;
47251;SDS011;32991;51.374;11.586;2023-07-16T09:43:10;9.13;;;1.65;;
47251;SDS011;32991;51.374;11.586;2023-07-16T09:45:38;3.55;;;1.80;;
47251;SDS011;32991;51.374;11.586;2023-07-16T09:48:05;3.65;;;1.50;;
47251;SDS011;32991;51.374;11.586;2023-07-16T09:50:33;4.53;;;1.50;;
47251;SDS011;32991;51.374;11.586;2023-07-16T09:53:00;2.38;;;1.38;;
47251;SDS011;32991;51.374;11.586;2023-07-16T09:55:26;4.45;;;1.45;;
47251;SDS011;32991;51.374;11.586;2023-07-16T09:57:53;4.05;;;1.73;;
47251;SDS011;32991;51.374;11.586;2023-07-16T10:00:21;3.08;;;1.40;;
47251;SDS011;32991;51.374;11.586;2023-07-16T10:02:49;3.22;;;1.50;;
47251;SDS011;32991;51.374;11.586;2023-07-16T10:05:19;5.03;;;1.67;;
47251;SDS011;32991;51.374;11.586;2023-07-16T10:07:52;4.60;;;1.85;;
47251;SDS011;32991;51.374;11.586;2023-07-16T10:10:20;3.63;;;1.30;;
47251;SDS011;32991;51.374;11.586;2023-07-16T10:12:58;3.17;;;1.55;;
47251;SDS011;32991;51.374;11.586;2023-07-16T10:15:27;3.85;;;1.40;;
47251;SDS011;32991;51.374;11.586;2023-07-16T10:17:55;2.97;;;1.40;;
47251;SDS011;32991;51.374;11.586;2023-07-16T10:23:12;2.20;;;1.60;;
47251;SDS011;32991;51.374;11.586;2023-07-16T10:25:40;4.00;;;1.50;;
47251;SDS011;32991;51.374;11.586;2023-07-16T10:28:07;2.30;;;1.50;;
47251;SDS011;32991;51.374;11.586;2023-07-16T10:30:34;4.60;;;1.40;;
47251;SDS011;32991;51.374;11.586;2023-07-16T10:33:10;2.63;;;1.25;;
47251;SDS011;32991;51.374;11.586;2023-07-16T10:35:40;3.35;;;1.45;;
47251;SDS011;32991;51.374;11.586;2023-07-16T10:38:07;3.17;;;1.50;;
47251;SDS011;32991;51.374;11.586;2023-07-16T10:40:39;2.35;;;1.27;;
47251;SDS011;32991;51.374;11.586;2023-07-16T10:43:06;2.45;;;1.33;;
47251;SDS011;32991;51.374;11.586;2023-07-16T10:45:33;3.50;;;1.45;;
47251;SDS011;32991;51.374;11.586;2023-07-16T10:48:00;2.45;;;1.40;;
47251;SDS011;32991;51.374;11.586;2023-07-16T10:50:26;2.35;;;1.40;;
47251;SDS011;32991;51.374;11.586;2023-07-16T10:52:53;4.93;;;1.77;;
47251;SDS011;32991;51.374;11.586;2023-07-16T10:55:23;3.95;;;1.50;;
47251;SDS011;32991;51.374;11.586;2023-07-16T10:57:52;4.10;;;1.45;;
47251;SDS011;32991;51.374;11.586;2023-07-16T11:00:20;6.60;;;1.75;;
47251;SDS011;32991;51.374;11.586;2023-07-16T11:02:51;7.45;;;2.00;;
47251;SDS011;32991;51.374;11.586;2023-07-16T11:05:19;3.78;;;1.73;;
47251;SDS011;32991;51.374;11.586;2023-07-16T11:07:46;3.90;;;1.63;;
47251;SDS011;32991;51.374;11.586;2023-07-16T11:10:20;4.35;;;1.77;;
47251;SDS011;32991;51.374;11.586;2023-07-16T11:12:50;3.45;;;1.40;;
47251;SDS011;32991;51.374;11.586;2023-07-16T11:15:18;2.03;;;1.42;;
47251;SDS011;32991;51.374;11.586;2023-07-16T11:17:56;1.85;;;1.27;;
47251;SDS011;32991;51.374;11.586;2023-07-16T11:20:23;2.78;;;1.58;;
47251;SDS011;32991;51.374;11.586;2023-07-16T11:25:16;2.03;;;1.60;;
47251;SDS011;32991;51.374;11.586;2023-07-16T11:27:43;3.40;;;1.58;;
47251;SDS011;32991;51.374;11.586;2023-07-16T11:30:10;3.67;;;1.50;;
47251;SDS011;32991;51.374;11.586;2023-07-16T11:32:37;2.58;;;1.40;;
47251;SDS011;32991;51.374;11.586;2023-07-16T11:35:11;4.38;;;1.50;;
47251;SDS011;32991;51.374;11.586;2023-07-16T11:37:42;3.43;;;1.60;;
47251;SDS011;32991;51.374;11.586;2023-07-16T11:40:09;2.47;;;1.40;;
47251;SDS011;32991;51.374;11.586;2023-07-16T11:42:38;3.88;;;1.50;;
47251;SDS011;32991;51.374;11.586;2023-07-16T11:45:14;3.72;;;1.63;;
47251;SDS011;32991;51.374;11.586;2023-07-16T11:47:42;2.33;;;1.60;;
47251;SDS011;32991;51.374;11.586;2023-07-16T11:50:10;2.55;;;1.40;;
47251;SDS011;32991;51.374;11.586;2023-07-16T11:52:38;2.15;;;1.30;;
47251;SDS011;32991;51.374;11.586;2023-07-16T11:55:04;3.67;;;1.58;;
47251;SDS011;32991;51.374;11.586;2023-07-16T11:57:32;2.08;;;1.38;;
47251;SDS011;32991;51.374;11.586;2023-07-16T11:59:58;3.63;;;1.50;;
47251;SDS011;32991;51.374;11.586;2023-07-16T12:02:25;4.60;;;1.40;;
47251;SDS011;32991;51.374;11.586;2023-07-16T12:04:53;3.08;;;1.52;;
47251;SDS011;32991;51.374;11.586;2023-07-16T12:07:33;4.65;;;1.52;;
47251;SDS011;32991;51.374;11.586;2023-07-16T12:10:02;3.80;;;1.80;;
47251;SDS011;32991;51.374;11.586;2023-07-16T12:12:30;3.45;;;1.70;;
47251;SDS011;32991;51.374;11.586;2023-07-16T12:14:59;4.28;;;1.70;;
47251;SDS011;32991;51.374;11.586;2023-07-16T12:17:26;3.10;;;1.60;;
47251;SDS011;32991;51.374;11.586;2023-07-16T12:19:53;3.92;;;1.80;;
47251;SDS011;32991;51.374;11.586;2023-07-16T12:22:20;4.88;;;2.00;;
47251;SDS011;32991;51.374;11.586;2023-07-16T12:24:47;3.13;;;1.80;;
47251;SDS011;32991;51.374;11.586;2023-07-16T12:27:14;4.15;;;1.88;;
47251;SDS011;32991;51.374;11.586;2023-07-16T12:29:41;3.78;;;1.80;;
47251;SDS011;32991;51.374;11.586;2023-07-16T12:32:08;5.53;;;2.00;;
47251;SDS011;32991;51.374;11.586;2023-07-16T12:34:35;4.30;;;2.00;;
47251;SDS011;32991;51.374;11.586;2023-07-16T12:37:03;2.47;;;1.60;;
47251;SDS011;32991;51.374;11.586;2023-07-16T12:39:29;5.43;;;1.70;;
47251;SDS011;32991;51.374;11.586;2023-07-16T12:41:56;4.18;;;1.80;;
47251;SDS011;32991;51.374;11.586;2023-07-16T12:44:23;5.57;;;1.83;;
47251;SDS011;32991;51.374;11.586;2023-07-16T12:46:49;3.28;;;1.52;;
47251;SDS011;32991;51.374;11.586;2023-07-16T12:49:16;2.15;;;1.70;;
47251;SDS011;32991;51.374;11.586;2023-07-16T12:51:42;7.57;;;1.70;;
47251;SDS011;32991;51.374;11.586;2023-07-16T12:54:09;3.38;;;1.73;;
47251;SDS011;32991;51.374;11.586;2023-07-16T12:56:36;4.68;;;2.08;;
47251;SDS011;32991;51.374;11.586;2023-07-16T12:59:02;3.75;;;1.55;;
47251;SDS011;32991;51.374;11.586;2023-07-16T13:01:29;6.43;;;2.13;;
47251;SDS011;32991;51.374;11.586;2023-07-16T13:03:57;2.33;;;1.55;;
47251;SDS011;32991;51.374;11.586;2023-07-16T13:06:24;5.88;;;1.77;;
47251;SDS011;32991;51.374;11.586;2023-07-16T13:08:50;2.45;;;1.80;;
47251;SDS011;32991;51.374;11.586;2023-07-16T13:11:17;2.20;;;1.80;;
47251;SDS011;32991;51.374;11.586;2023-07-16T13:13:43;3.90;;;1.80;;
47251;SDS011;32991;51.374;11.586;2023-07-16T13:16:10;3.80;;;1.90;;
47251;SDS011;32991;51.374;11.586;2023-07-16T13:18:37;3.13;;;2.20;;
47251;SDS011;32991;51.374;11.586;2023-07-16T13:21:04;3.67;;;1.70;;
47251;SDS011;32991;51.374;11.586;2023-07-16T13:23:30;3.88;;;2.00;;
47251;SDS011;32991;51.374;11.586;2023-07-16T13:25:58;3.17;;;1.80;;
47251;SDS011;32991;51.374;11.586;2023-07-16T13:28:24;3.63;;;1.90;;
47251;SDS011;32991;51.374;11.586;2023-07-16T13:30:51;3.58;;;2.08;;
47251;SDS011;32991;51.374;11.586;2023-07-16T13:33:20;6.15;;;2.42;;
47251;SDS011;32991;51.374;11.586;2023-07-16T13:35:46;4.80;;;2.60;;
47251;SDS011;32991;51.374;11.586;2023-07-16T13:38:13;6.13;;;2.10;;
47251;SDS011;32991;51.374;11.586;2023-07-16T13:40:39;3.03;;;2.03;;
47251;SDS011;32991;51.374;11.586;2023-07-16T13:43:06;7.78;;;2.03;;
47251;SDS011;32991;51.374;11.586;2023-07-16T13:45:33;4.15;;;2.15;;
47251;SDS011;32991;51.374;11.586;2023-07-16T13:48:00;5.40;;;2.28;;
47251;SDS011;32991;51.374;11.586;2023-07-16T13:50:26;4.28;;;1.98;;
47251;SDS011;32991;51.374;11.586;2023-07-16T13:52:53;5.90;;;2.05;;
47251;SDS011;32991;51.374;11.586;2023-07-16T13:55:20;2.13;;;1.50;;
47251;SDS011;32991;51.374;11.586;2023-07-16T13:57:46;4.32;;;2.03;;
47251;SDS011;32991;51.374;11.586;2023-07-16T14:00:13;5.05;;;2.28;;
47251;SDS011;32991;51.374;11.586;2023-07-16T14:02:42;7.53;;;2.22;;
47251;SDS011;32991;51.374;11.586;2023-07-16T14:05:10;3.00;;;1.85;;
47251;SDS011;32991;51.374;11.586;2023-07-16T14:07:37;4.28;;;2.03;;
47251;SDS011;32991;51.374;11.586;2023-07-16T14:10:04;5.85;;;2.28;;
47251;SDS011;32991;51.374;11.586;2023-07-16T14:12:31;4.63;;;2.25;;
47251;SDS011;32991;51.374;11.586;2023-07-16T14:14:57;3.72;;;2.13;;
47251;SDS011;32991;51.374;11.586;2023-07-16T14:17:24;4.97;;;2.28;;
47251;SDS011;32991;51.374;11.586;2023-07-16T14:19:51;3.90;;;2.17;;
47251;SDS011;32991;51.374;11.586;2023-07-16T14:22:17;6.32;;;2.08;;
47251;SDS011;32991;51.374;11.586;2023-07-16T14:24:44;5.97;;;2.35;;
47251;SDS011;32991;51.374;11.586;2023-07-16T14:27:11;3.22;;;2.30;;
47251;SDS011;32991;51.374;11.586;2023-07-16T14:29:40;3.38;;;2.17;;
47251;SDS011;32991;51.374;11.586;2023-07-16T14:32:26;4.95;;;2.30;;
47251;SDS011;32991;51.374;11.586;2023-07-16T14:34:53;3.78;;;2.40;;
47251;SDS011;32991;51.374;11.586;2023-07-16T14:37:20;2.75;;;1.80;;
47251;SDS011;32991;51.374;11.586;2023-07-16T14:39:47;4.78;;;2.00;;
47251;SDS011;32991;51.374;11.586;2023-07-16T14:42:13;4.13;;;2.10;;
47251;SDS011;32991;51.374;11.586;2023-07-16T14:44:40;6.25;;;2.10;;
47251;SDS011;32991;51.374;11.586;2023-07-16T14:47:06;3.55;;;2.13;;
47251;SDS011;32991;51.374;11.586;2023-07-16T14:49:33;9.13;;;2.35;;
47251;SDS011;32991;51.374;11.586;2023-07-16T14:51:59;4.32;;;2.17;;
47251;SDS011;32991;51.374;11.586;2023-07-16T14:54:26;4.03;;;2.38;;
47251;SDS011;32991;51.374;11.586;2023-07-16T14:56:53;4.82;;;2.40;;
47251;SDS011;32991;51.374;11.586;2023-07-16T14:59:19;6.63;;;2.42;;
47251;SDS011;32991;51.374;11.586;2023-07-16T15:01:47;5.03;;;2.33;;
47251;SDS011;32991;51.374;11.586;2023-07-16T15:04:14;4.75;;;2.40;;